Latest Weather Observations for Biloela

IDQ60801

Issued at 8:02 am EST Tuesday 27 October 2020 (issued every 10 minutes, with the page automatically refreshed every 10 minutes)

About weather observations | Map of weather stations | Latest weather observations for QLD | Other Formats
Station Details ID: 039089 Name: THANGOOL AIRPORT Lat: -24.49 Lon: 150.57 Height: 193.1 m
Data from the previous 72 hours. | See also: Recent months at Biloela
Date/Time
EST
Temp
°C
App
Temp
°C
Dew
Point
°C
Rel
Hum
%
Delta-T
°C
Wind Press
QNH
hPa
Press
MSL
hPa
Rain since
9am
mm
Dir  Spd
km/h
Gust
km/h
Spd
kts
Gust
kts
27/08:00am 24.1 26.3 18.3 70 3.7 SE 4 7 2 4 1014.3 1013.5 0.0
27/07:30am 22.3 24.9 18.5 79 2.4 SSE 2 7 1 4 1014.5 1013.7 0.0
27/07:00am 21.3 23.1 18.7 85 1.6 ESE 7 9 4 5 1013.8 1013.0 0.0
27/06:30am 20.1 22.1 18.8 92 0.8 ESE 6 7 3 4 1013.8 1013.0 0.0
27/06:00am 19.3 21.2 18.5 95 0.5 ENE 6 7 3 4 1013.2 1012.4 0.0
27/05:30am 18.7 21.4 17.7 94 0.6 CALM 0 6 0 3 1012.6 1011.8 0.0
27/05:00am 19.0 21.7 17.7 92 0.8 CALM 0 0 0 0 1012.7 1011.9 0.0
27/04:30am 19.4 21.4 17.9 91 0.9 ESE 4 9 2 5 1012.0 1011.2 0.0
27/04:00am 19.3 20.8 18.1 93 0.7 E 7 7 4 4 1011.8 1011.0 0.0
27/03:30am 19.7 22.5 18.0 90 1.1 CALM 0 0 0 0 1011.7 1010.9 0.0
27/03:00am 19.8 22.6 17.9 89 1.2 CALM 0 0 0 0 1011.8 1011.0 0.0
27/02:30am 19.9 22.7 17.9 88 1.2 CALM 0 0 0 0 1012.0 1011.2 0.0
27/02:00am 20.1 22.8 17.7 86 1.5 CALM 0 0 0 0 1012.4 1011.6 0.0
27/01:30am 20.4 23.1 17.8 85 1.6 CALM 0 0 0 0 1012.6 1011.8 0.0
27/01:00am 21.2 23.5 17.6 80 2.2 NNW 2 6 1 3 1012.5 1011.7 0.0
27/12:30am 21.3 22.4 17.9 81 2.1 N 9 11 5 6 1012.9 1012.1 0.0
27/12:00am 21.7 22.9 18.3 81 2.1 N 9 11 5 6 1013.3 1012.5 0.0
 
Date/Time
EST
Temp
°C
App
Temp
°C
Dew
Point
°C
Rel
Hum
%
Delta-T
°C
Wind Press
QNH
hPa
Press
MSL
hPa
Rain since
9am
mm
Dir  Spd
km/h
Gust
km/h
Spd
kts
Gust
kts
26/11:30pm 21.4 23.1 18.4 83 1.9 NNW 7 13 4 7 1013.4 1012.6 0.0
26/11:00pm 21.8 24.9 18.6 82 2.0 CALM 0 0 0 0 1013.3 1012.5 0.0
26/10:30pm 22.1 25.0 18.3 79 2.4 CALM 0 0 0 0 1013.5 1012.7 0.0
26/10:00pm 22.8 24.5 18.6 77 2.7 WSW 7 11 4 6 1013.7 1012.9 0.0
26/09:30pm 23.7 25.7 17.0 66 4.2 NW 2 6 1 3 1013.4 1012.6 0.0
26/09:00pm 24.1 25.0 18.5 71 3.6 NNE 11 15 6 8 1013.5 1012.7 0.0
26/08:30pm 24.6 25.3 18.8 70 3.7 N 13 19 7 10 1012.8 1012.0 0.0
26/08:00pm 24.6 25.5 17.6 65 4.4 NE 9 13 5 7 1012.5 1011.7 0.0
26/07:30pm 24.6 25.5 15.2 55 5.7 ESE 4 7 2 4 1011.8 1011.0 0.0
26/07:00pm 24.7 25.8 13.6 50 6.6 CALM 0 0 0 0 1011.4 1010.6 0.0
26/06:30pm 26.6 26.4 13.0 43 8.0 SE 6 7 3 4 1011.2 1010.4 0.0
26/06:00pm 28.3 29.0 12.2 37 9.4 CALM 0 0 0 0 1010.8 1010.0 0.0
26/05:30pm 29.4 28.6 12.8 36 9.9 SW 9 13 5 7 1010.4 1009.6 0.0
26/05:00pm 29.9 28.0 11.9 33 10.6 WSW 13 20 7 11 1010.0 1009.2 0.0
26/04:30pm 29.6 28.8 12.9 35 9.9 WSW 9 13 5 7 1009.6 1008.8 0.0
26/04:00pm 29.5 27.8 12.4 35 10.1 WSW 13 22 7 12 1009.5 1008.7 0.0
26/03:30pm 29.9 29.2 13.2 36 10.0 WSW 9 22 5 12 1009.3 1008.5 0.0
26/03:00pm 30.4 28.9 13.2 35 10.3 W 13 20 7 11 1009.6 1008.8 0.0
26/02:30pm 30.6 28.4 14.3 37 10.0 W 19 28 10 15 1009.8 1009.0 0.0
26/02:00pm 29.6 27.3 12.9 35 10.0 W 17 28 9 15 1010.2 1009.4 0.0
26/01:30pm 29.7 27.5 14.3 39 9.4 WNW 19 28 10 15 1010.7 1009.9 0.0
26/01:00pm 29.3 27.9 16.5 46 8.1 NW 19 26 10 14 1011.1 1010.3 0.0
26/12:30pm 29.2 28.9 18.3 51 7.0 NW 17 24 9 13 1011.4 1010.6 0.0
26/12:00pm 27.7 28.5 18.1 56 6.2 NNW 11 19 6 10 1011.8 1011.0 0.0
26/11:30am 27.4 28.5 18.9 59 5.5 NNW 11 19 6 10 1012.4 1011.6 0.0
26/11:00am 26.6 27.4 19.0 63 4.9 NW 13 22 7 12 1012.8 1012.0 0.0
26/10:30am 25.9 25.9 18.1 62 5.0 NNW 15 22 8 12 1013.0 1012.2 0.0
26/10:00am 25.7 25.9 18.6 65 4.6 NW 15 24 8 13 1013.1 1012.3 0.0
26/09:30am 24.2 23.9 17.4 65 4.3 NW 15 22 8 12 1013.3 1012.5 0.0
26/09:00am 23.9 25.2 18.5 72 3.4 NW 9 15 5 8 1013.3 1012.5 19.0
26/08:30am 22.9 25.0 19.3 80 2.3 W 7 13 4 7 1013.3 1012.5 19.0
26/08:00am 22.2 25.1 19.0 82 2.0 WNW 2 9 1 5 1013.2 1012.4 19.0
26/07:30am 21.6 24.6 19.3 87 1.5 ESE 2 7 1 4 1012.8 1012.0 19.0
26/07:00am 20.5 22.2 18.6 89 1.2 E 7 9 4 5 1012.6 1011.8 19.0
26/06:30am 20.3 22.3 19.1 93 0.8 E 7 9 4 5 1012.4 1011.6 19.0
26/06:00am 19.4 21.2 18.7 96 0.4 ENE 7 11 4 6 1012.0 1011.2 19.0
26/05:30am 19.0 20.4 18.7 98 0.2 ENE 9 11 5 6 1011.7 1010.9 19.0
26/05:00am 18.5 19.7 18.3 99 0.1 ENE 9 11 5 6 1011.5 1010.7 19.0
26/04:30am 18.0 20.7 17.8 99 0.1 CALM 0 7 0 4 1011.0 1010.2 19.0
26/04:00am 17.6 19.8 17.4 99 0.1 S 2 9 1 5 1011.0 1010.2 19.0
26/03:30am 16.7 17.2 16.5 99 0.1 ESE 9 11 5 6 1010.4 1009.6 18.8
26/03:01am 16.5 17.3 16.3 99 0.1 ENE 7 9 4 5 1010.6 1009.8 18.8
26/03:00am 16.5 17.3 16.3 99 0.1 ENE 7 7 4 4 1010.6 1009.8 18.8
26/02:38am 16.6 18.0 16.4 99 0.1 S 4 7 2 4 1010.7 1009.9 18.8
26/02:30am 16.8 17.7 16.6 99 0.1 SSE 7 7 4 4 1010.7 1009.9 18.8
26/02:00am 16.7 18.9 16.5 99 0.1 CALM 0 0 0 0 1010.7 1009.9 18.8
26/01:30am 17.0 19.3 16.7 98 0.2 CALM 0 0 0 0 1010.8 1010.0 18.8
26/01:00am 17.0 18.9 16.8 99 0.1 E 2 9 1 5 1010.9 1010.1 18.8
26/12:30am 17.2 19.6 17.0 99 0.1 CALM 0 0 0 0 1011.2 1010.4 18.8
26/12:00am 17.0 19.3 16.7 98 0.2 CALM 0 0 0 0 1011.4 1010.6 18.8
 
Date/Time
EST
Temp
°C
App
Temp
°C
Dew
Point
°C
Rel
Hum
%
Delta-T
°C
Wind Press
QNH
hPa
Press
MSL
hPa
Rain since
9am
mm
Dir  Spd
km/h
Gust
km/h
Spd
kts
Gust
kts
25/11:30pm 17.4 19.8 16.9 97 0.3 CALM 0 0 0 0 1011.5 1010.7 18.8
25/11:00pm 17.6 20.0 17.1 97 0.3 CALM 0 0 0 0 1011.5 1010.7 18.8
25/10:30pm 17.8 20.3 17.2 96 0.4 CALM 0 0 0 0 1011.4 1010.6 18.8
25/10:00pm 18.1 20.5 17.1 94 0.6 CALM 0 0 0 0 1011.6 1010.8 18.8
25/09:30pm 18.4 20.8 17.1 92 0.8 CALM 0 0 0 0 1011.7 1010.9 18.8
25/09:00pm 18.7 21.3 17.4 92 0.8 CALM 0 0 0 0 1011.4 1010.6 18.8
25/08:30pm 19.4 20.6 17.4 88 1.2 SW 7 9 4 5 1011.4 1010.6 18.8
25/08:00pm 19.5 21.9 17.1 86 1.5 CALM 0 0 0 0 1011.4 1010.6 18.8
25/07:30pm 20.5 21.4 17.5 83 1.9 WNW 9 9 5 5 1011.2 1010.4 18.8
25/07:00pm 21.0 22.3 17.6 81 2.1 NW 7 9 4 5 1010.8 1010.0 18.8
25/06:30pm 21.5 21.9 18.1 81 2.1 N 13 24 7 13 1010.4 1009.6 18.8
25/06:00pm 24.0 23.2 19.3 75 3.0 NE 22 32 12 17 1010.1 1009.3 17.2
25/05:30pm 24.0 23.9 19.5 76 2.9 NE 19 26 10 14 1009.3 1008.5 17.2
25/05:00pm 23.7 23.3 19.0 75 3.0 N 19 30 10 16 1009.1 1008.3 17.2
25/04:30pm 26.4 26.8 19.0 63 4.8 NW 15 19 8 10 1008.9 1008.1 17.2
25/04:00pm 26.1 27.5 19.5 67 4.3 NNW 11 19 6 10 1008.7 1007.9 17.0
25/03:30pm 26.8 29.0 19.7 65 4.6 NW 7 11 4 6 1008.8 1008.0 17.0
25/03:00pm 26.8 27.9 19.7 65 4.6 NW 13 17 7 9 1009.3 1008.5 17.0
25/02:30pm 26.6 27.9 19.2 64 4.8 NNW 11 19 6 10 1009.6 1008.8 17.0
25/02:00pm 26.2 27.0 19.1 65 4.6 NNW 13 19 7 10 1010.0 1009.2 17.0
25/01:30pm 25.0 27.4 21.5 81 2.3 NNW 11 15 6 8 1010.2 1009.4 17.0
25/01:00pm 24.4 26.6 20.3 78 2.7 N 9 15 5 8 1010.9 1010.1 17.0
25/12:30pm 23.7 25.4 20.2 81 2.3 NW 11 15 6 8 1011.7 1010.9 16.8
25/12:25pm 24.0 25.7 20.9 83 2.0 NW 13 17 7 9 1011.8 1011.0 16.8
25/12:03pm 23.8 25.9 21.7 88 1.4 NNW 13 17 7 9 1012.0 1011.2 16.8
25/12:01pm 23.6 25.3 20.9 85 1.8 NNW 13 17 7 9 1012.0 1011.2 16.8
25/12:00pm 23.5 24.9 20.4 83 2.0 NNW 13 17 7 9 1012.0 1011.2 16.8
25/11:30am 23.4 25.4 22.2 93 0.8 NW 15 20 8 11 1012.7 1011.9 16.8
25/11:00am 22.2 26.8 21.7 97 0.3 CALM 0 0 0 0 1012.9 1012.1 16.6
25/10:34am 21.6 24.5 21.1 97 0.3 WNW 7 13 4 7 1013.2 1012.4 16.2
25/10:30am 21.3 24.0 20.6 96 0.5 NW 7 13 4 7 1013.2 1012.4 16.2
25/10:29am 21.4 24.1 20.7 96 0.5 NNW 7 13 4 7 1013.2 1012.4 16.2
25/10:24am 21.1 23.3 20.3 95 0.5 N 9 15 5 8 1013.2 1012.4 16.2
25/10:11am 21.1 21.8 20.4 96 0.5 NW 17 26 9 14 1013.6 1012.8 13.2
25/10:00am 21.4 21.7 19.5 89 1.2 WNW 17 28 9 15 1013.5 1012.7 7.6
25/09:55am 21.9 21.7 19.3 85 1.7 NW 19 28 10 15 1013.5 1012.7 3.2
25/09:30am 24.4 24.4 19.0 72 3.5 NNW 17 28 9 15 1013.4 1012.6 0.0
25/09:00am 24.7 25.1 18.2 67 4.1 NNW 13 22 7 12 1013.3 1012.5 10.2
25/08:30am 23.5 24.5 18.6 74 3.1 NNW 11 17 6 9 1013.0 1012.2 10.2
25/08:00am 22.8 23.8 19.4 81 2.2 N 13 20 7 11 1012.8 1012.0 10.2
25/07:30am 21.9 22.5 18.5 81 2.1 N 13 17 7 9 1012.7 1011.9 10.2
25/07:00am 21.0 22.9 18.9 88 1.3 NNE 7 9 4 5 1012.3 1011.5 10.2
25/06:30am 20.1 22.3 18.4 90 1.1 SW 4 13 2 7 1011.6 1010.8 10.2
25/06:00am 20.3 20.9 18.6 90 1.1 NW 13 19 7 10 1012.0 1011.2 9.6
25/05:30am 20.5 21.6 18.8 90 1.1 NW 11 13 6 7 1012.0 1011.2 9.2
25/05:00am 20.6 22.6 19.1 91 1.0 N 7 13 4 7 1011.4 1010.6 9.2
25/04:30am 20.4 22.4 19.2 93 0.8 NE 7 9 4 5 1011.2 1010.4 9.2
25/04:00am 20.5 23.5 19.3 93 0.8 NE 2 7 1 4 1011.6 1010.8 9.2
25/03:30am 20.4 23.8 19.4 94 0.6 CALM 0 0 0 0 1011.9 1011.1 9.2
25/03:00am 20.4 22.6 19.1 92 0.8 SW 6 9 3 5 1012.2 1011.4 9.2
25/02:30am 20.4 22.4 18.7 90 1.1 SE 6 9 3 5 1011.6 1010.8 9.2
25/02:00am 21.5 22.8 18.5 83 1.9 NE 9 13 5 7 1011.5 1010.7 9.2
25/01:30am 21.8 22.7 19.2 85 1.7 NNE 13 20 7 11 1011.9 1011.1 9.2
25/01:00am 21.2 23.4 19.5 90 1.1 NNE 7 13 4 7 1012.4 1011.6 9.2
25/12:30am 20.7 23.9 18.8 89 1.2 CALM 0 0 0 0 1012.4 1011.6 9.2
25/12:00am 21.1 23.7 18.3 84 1.8 WSW 2 6 1 3 1011.9 1011.1 9.0
 
Date/Time
EST
Temp
°C
App
Temp
°C
Dew
Point
°C
Rel
Hum
%
Delta-T
°C
Wind Press
QNH
hPa
Press
MSL
hPa
Rain since
9am
mm
Dir  Spd
km/h
Gust
km/h
Spd
kts
Gust
kts
24/11:30pm 21.4 23.2 18.4 83 1.9 WNW 6 11 3 6 1011.9 1011.1 9.0
24/11:00pm 21.2 22.5 18.4 84 1.8 NNW 9 13 5 7 1011.6 1010.8 9.0
24/10:30pm 22.0 22.8 18.2 79 2.4 NNE 11 20 6 11 1011.5 1010.7 9.0
24/10:00pm 21.6 23.1 18.0 80 2.3 NNW 7 11 4 6 1011.9 1011.1 9.0
24/09:30pm 22.5 24.0 18.1 76 2.8 NNW 7 13 4 7 1011.8 1011.0 9.0
24/09:00pm 21.4 22.5 18.0 81 2.1 E 9 13 5 7 1011.1 1010.3 9.0
24/08:30pm 22.2 23.0 18.2 78 2.5 NNE 11 17 6 9 1011.4 1010.6 9.0
24/08:00pm 22.4 23.2 18.2 77 2.6 NNE 11 17 6 9 1011.3 1010.5 9.0
24/07:30pm 22.4 22.9 18.4 78 2.5 NNE 13 15 7 8 1011.1 1010.3 9.0
24/07:00pm 22.6 23.6 17.7 74 3.1 NNE 9 15 5 8 1010.9 1010.1 9.0
24/06:30pm 22.8 24.2 17.9 74 3.1 NNE 7 13 4 7 1010.7 1009.9 9.0
24/06:00pm 23.0 24.6 18.3 75 3.0 N 7 9 4 5 1010.6 1009.8 9.0
24/05:30pm 23.8 24.6 18.2 71 3.5 N 11 17 6 9 1010.5 1009.7 9.0
24/05:00pm 24.0 24.6 17.7 68 4.0 N 11 15 6 8 1010.6 1009.8 9.0
24/04:30pm 23.9 25.3 17.9 69 3.8 NNW 7 15 4 8 1010.6 1009.8 9.0
24/04:00pm 23.2 24.5 18.5 75 3.0 NW 9 13 5 7 1010.9 1010.1 9.0
24/03:30pm 23.0 24.2 18.3 75 3.0 W 9 17 5 9 1010.7 1009.9 9.0
24/03:00pm 23.0 22.8 18.5 76 2.9 WNW 17 26 9 14 1011.0 1010.2 9.0
24/02:30pm 23.6 22.5 17.8 70 3.6 NNW 20 35 11 19 1011.1 1010.3 9.0
24/02:00pm 23.7 23.2 19.0 75 3.0 WNW 20 30 11 16 1011.5 1010.7 9.0
24/01:30pm 21.9 23.2 19.3 85 1.7 SW 11 20 6 11 1011.5 1010.7 9.0
24/01:00pm 21.1 22.6 18.9 87 1.4 SSE 9 13 5 7 1011.3 1010.5 9.0
24/12:30pm 20.1 21.6 18.8 92 0.8 NE 9 19 5 10 1011.9 1011.1 9.0
24/12:25pm 19.8 21.9 19.0 95 0.5 NNE 6 15 3 8 1012.3 1011.5 9.0
24/12:14pm 19.3 20.7 18.6 96 0.4 N 9 13 5 7 1013.4 1012.6 8.8
24/12:11pm 19.3 20.3 18.6 96 0.4 NNW 11 15 6 8 1013.4 1012.6 8.4
24/12:00pm 19.2 18.6 18.5 96 0.4 WNW 19 30 10 16 1014.1 1013.3 7.4
24/11:42am 19.2 16.9 17.7 91 0.9 WNW 26 39 14 21 1014.2 1013.4 3.4
24/11:30am 20.3 19.4 17.7 85 1.6 W 19 32 10 17 1014.2 1013.4 0.6
24/11:00am 24.7 23.1 17.4 64 4.6 N 22 30 12 16 1013.6 1012.8 0.0
24/10:30am 25.0 22.5 17.0 61 5.0 N 26 35 14 19 1013.8 1013.0 0.0
24/10:00am 24.9 23.7 17.6 64 4.6 N 20 28 11 15 1014.1 1013.3 0.0
24/09:30am 24.3 23.5 17.1 64 4.5 N 17 22 9 12 1014.4 1013.6 0.0
24/09:00am 23.8 22.9 16.8 65 4.3 N 17 22 9 12 1014.3 1013.5 0.0
24/08:30am 23.8 23.6 17.5 68 3.9 N 15 20 8 11 1014.5 1013.7 0.0

Other formats

Comma delimited format used in spreadsheet applications
http://www.bom.gov.au/fwo/IDQ60801/IDQ60801.94376.axf

JavaScript Object Notation format (JSON) in row-major order
http://www.bom.gov.au/fwo/IDQ60801/IDQ60801.94376.json

Data quality

Most of these data are generated automatically and are frequently updated. Quality checks on data are not normally performed. It is possible for incorrect values to appear. Refer to information at About Latest Weather Observations and please check the disclaimer before using these data.